Terminal Aerodrome Forecast
Issued by NWS

Home | Current Version | Previous Version | Text Only | Print | Product List | Glossary On
Versions: 1 2 3 4 5 6 7 8 9 10 11 12 13 14 15 16
000
FTUS43 KLSX 231700 RRA
TAFCPS
TAF
KCPS 231741Z 2318/2418 18007KT P6SM SCT120 BKN250
     FM232000 18005KT P6SM BKN060 BKN200
     FM240500 20003KT P6SM BKN030
      TEMPO 2408/2412 3SM BR BKN015
     FM241500 20005KT P6SM FEW015 SCT030=

USA.gov is the U.S. government's official web portal to all federal, state and local government web resources and services.